sensor_id;sensor_type;location;lat;lon;timestamp;P1;durP1;ratioP1;P2;durP2;ratioP2
8757;SDS011;4415;42.152;24.744;2022-08-05T00:02:00;4.30;;;3.92;;
8757;SDS011;4415;42.152;24.744;2022-08-05T00:04:25;5.00;;;4.70;;
8757;SDS011;4415;42.152;24.744;2022-08-05T00:06:51;6.95;;;5.40;;
8757;SDS011;4415;42.152;24.744;2022-08-05T00:09:16;6.55;;;5.57;;
8757;SDS011;4415;42.152;24.744;2022-08-05T00:11:42;5.50;;;5.10;;
8757;SDS011;4415;42.152;24.744;2022-08-05T00:14:07;5.93;;;5.38;;
8757;SDS011;4415;42.152;24.744;2022-08-05T00:16:33;9.65;;;5.20;;
8757;SDS011;4415;42.152;24.744;2022-08-05T00:18:58;6.05;;;5.40;;
8757;SDS011;4415;42.152;24.744;2022-08-05T00:21:23;7.07;;;6.15;;
8757;SDS011;4415;42.152;24.744;2022-08-05T00:23:49;6.60;;;5.82;;
8757;SDS011;4415;42.152;24.744;2022-08-05T00:26:14;9.73;;;6.38;;
8757;SDS011;4415;42.152;24.744;2022-08-05T00:28:40;6.93;;;6.23;;
8757;SDS011;4415;42.152;24.744;2022-08-05T00:31:05;9.90;;;5.87;;
8757;SDS011;4415;42.152;24.744;2022-08-05T00:33:32;6.00;;;5.60;;
8757;SDS011;4415;42.152;24.744;2022-08-05T00:35:58;5.68;;;5.25;;
8757;SDS011;4415;42.152;24.744;2022-08-05T00:38:24;6.10;;;5.60;;
8757;SDS011;4415;42.152;24.744;2022-08-05T00:40:54;7.00;;;5.43;;
8757;SDS011;4415;42.152;24.744;2022-08-05T00:43:22;7.80;;;5.43;;
8757;SDS011;4415;42.152;24.744;2022-08-05T00:45:47;5.73;;;4.93;;
8757;SDS011;4415;42.152;24.744;2022-08-05T00:48:15;4.83;;;4.53;;
8757;SDS011;4415;42.152;24.744;2022-08-05T00:50:42;5.67;;;4.93;;
8757;SDS011;4415;42.152;24.744;2022-08-05T00:53:09;5.43;;;5.00;;
8757;SDS011;4415;42.152;24.744;2022-08-05T00:55:34;5.57;;;5.17;;
8757;SDS011;4415;42.152;24.744;2022-08-05T00:58:00;7.47;;;5.50;;
8757;SDS011;4415;42.152;24.744;2022-08-05T01:00:27;5.67;;;5.17;;
8757;SDS011;4415;42.152;24.744;2022-08-05T01:02:54;6.90;;;5.40;;
8757;SDS011;4415;42.152;24.744;2022-08-05T01:05:20;6.00;;;5.47;;
8757;SDS011;4415;42.152;24.744;2022-08-05T01:07:46;8.07;;;5.60;;
8757;SDS011;4415;42.152;24.744;2022-08-05T01:10:12;10.53;;;5.77;;
8757;SDS011;4415;42.152;24.744;2022-08-05T01:12:42;5.73;;;5.33;;
8757;SDS011;4415;42.152;24.744;2022-08-05T01:15:11;5.93;;;5.40;;
8757;SDS011;4415;42.152;24.744;2022-08-05T01:17:44;5.80;;;5.30;;
8757;SDS011;4415;42.152;24.744;2022-08-05T01:23:10;6.47;;;5.50;;
8757;SDS011;4415;42.152;24.744;2022-08-05T01:31:28;8.17;;;5.93;;
8757;SDS011;4415;42.152;24.744;2022-08-05T01:36:39;6.80;;;6.07;;
8757;SDS011;4415;42.152;24.744;2022-08-05T01:39:10;8.57;;;5.47;;
8757;SDS011;4415;42.152;24.744;2022-08-05T01:41:37;6.17;;;5.60;;
8757;SDS011;4415;42.152;24.744;2022-08-05T01:44:03;5.37;;;4.87;;
8757;SDS011;4415;42.152;24.744;2022-08-05T01:46:31;8.00;;;5.13;;
8757;SDS011;4415;42.152;24.744;2022-08-05T01:48:58;5.97;;;5.47;;
8757;SDS011;4415;42.152;24.744;2022-08-05T01:51:25;5.93;;;5.43;;
8757;SDS011;4415;42.152;24.744;2022-08-05T01:53:51;8.97;;;6.00;;
8757;SDS011;4415;42.152;24.744;2022-08-05T01:56:19;5.83;;;5.30;;
8757;SDS011;4415;42.152;24.744;2022-08-05T01:58:47;5.57;;;5.00;;
8757;SDS011;4415;42.152;24.744;2022-08-05T02:01:17;5.37;;;4.97;;
8757;SDS011;4415;42.152;24.744;2022-08-05T02:03:45;5.63;;;5.13;;
8757;SDS011;4415;42.152;24.744;2022-08-05T02:06:12;8.90;;;5.73;;
8757;SDS011;4415;42.152;24.744;2022-08-05T02:08:37;6.43;;;5.57;;
8757;SDS011;4415;42.152;24.744;2022-08-05T02:11:05;5.87;;;5.37;;
8757;SDS011;4415;42.152;24.744;2022-08-05T02:13:40;9.10;;;5.50;;
8757;SDS011;4415;42.152;24.744;2022-08-05T02:18:40;6.03;;;5.53;;
8757;SDS011;4415;42.152;24.744;2022-08-05T02:21:10;5.43;;;4.90;;
8757;SDS011;4415;42.152;24.744;2022-08-05T02:23:37;5.43;;;5.00;;
8757;SDS011;4415;42.152;24.744;2022-08-05T02:26:05;6.00;;;5.53;;
8757;SDS011;4415;42.152;24.744;2022-08-05T02:28:33;5.50;;;5.10;;
8757;SDS011;4415;42.152;24.744;2022-08-05T02:31:21;5.60;;;5.13;;
8757;SDS011;4415;42.152;24.744;2022-08-05T02:33:54;5.97;;;5.57;;
8757;SDS011;4415;42.152;24.744;2022-08-05T02:36:24;6.03;;;5.53;;
8757;SDS011;4415;42.152;24.744;2022-08-05T02:38:51;6.43;;;5.73;;
8757;SDS011;4415;42.152;24.744;2022-08-05T02:41:19;6.40;;;5.90;;
8757;SDS011;4415;42.152;24.744;2022-08-05T02:43:46;7.17;;;6.67;;
8757;SDS011;4415;42.152;24.744;2022-08-05T02:46:16;10.27;;;6.10;;
8757;SDS011;4415;42.152;24.744;2022-08-05T02:48:43;6.33;;;5.70;;
8757;SDS011;4415;42.152;24.744;2022-08-05T02:51:11;6.00;;;5.57;;
8757;SDS011;4415;42.152;24.744;2022-08-05T02:53:38;6.93;;;6.40;;
8757;SDS011;4415;42.152;24.744;2022-08-05T02:56:09;6.43;;;5.83;;
8757;SDS011;4415;42.152;24.744;2022-08-05T02:58:39;6.30;;;5.80;;
8757;SDS011;4415;42.152;24.744;2022-08-05T03:01:05;6.83;;;5.87;;
8757;SDS011;4415;42.152;24.744;2022-08-05T03:03:33;5.63;;;5.30;;
8757;SDS011;4415;42.152;24.744;2022-08-05T03:06:04;5.87;;;5.40;;
8757;SDS011;4415;42.152;24.744;2022-08-05T03:08:30;5.70;;;5.17;;
8757;SDS011;4415;42.152;24.744;2022-08-05T03:10:57;7.30;;;5.80;;
8757;SDS011;4415;42.152;24.744;2022-08-05T03:13:23;6.10;;;5.50;;
8757;SDS011;4415;42.152;24.744;2022-08-05T03:15:48;6.70;;;5.70;;
8757;SDS011;4415;42.152;24.744;2022-08-05T03:18:13;6.13;;;5.60;;
8757;SDS011;4415;42.152;24.744;2022-08-05T03:20:39;5.53;;;5.13;;
8757;SDS011;4415;42.152;24.744;2022-08-05T03:23:05;5.60;;;5.20;;
8757;SDS011;4415;42.152;24.744;2022-08-05T03:25:33;5.97;;;5.37;;
8757;SDS011;4415;42.152;24.744;2022-08-05T03:28:00;5.90;;;5.40;;
8757;SDS011;4415;42.152;24.744;2022-08-05T03:30:27;5.60;;;5.17;;
8757;SDS011;4415;42.152;24.744;2022-08-05T03:32:56;7.83;;;5.33;;
8757;SDS011;4415;42.152;24.744;2022-08-05T03:35:22;5.40;;;5.07;;
8757;SDS011;4415;42.152;24.744;2022-08-05T03:37:48;8.10;;;5.23;;
8757;SDS011;4415;42.152;24.744;2022-08-05T03:40:14;5.03;;;4.60;;
8757;SDS011;4415;42.152;24.744;2022-08-05T03:42:39;5.43;;;4.80;;
8757;SDS011;4415;42.152;24.744;2022-08-05T03:45:05;6.70;;;5.03;;
8757;SDS011;4415;42.152;24.744;2022-08-05T03:47:31;8.67;;;4.87;;
8757;SDS011;4415;42.152;24.744;2022-08-05T03:49:57;5.73;;;5.23;;
8757;SDS011;4415;42.152;24.744;2022-08-05T03:52:23;8.10;;;5.87;;
8757;SDS011;4415;42.152;24.744;2022-08-05T03:54:54;5.97;;;5.47;;
8757;SDS011;4415;42.152;24.744;2022-08-05T03:57:24;6.23;;;5.63;;
8757;SDS011;4415;42.152;24.744;2022-08-05T04:00:02;14.47;;;6.27;;
8757;SDS011;4415;42.152;24.744;2022-08-05T04:02:31;8.63;;;5.90;;
8757;SDS011;4415;42.152;24.744;2022-08-05T04:04:58;6.00;;;5.50;;
8757;SDS011;4415;42.152;24.744;2022-08-05T04:07:26;8.25;;;5.93;;
8757;SDS011;4415;42.152;24.744;2022-08-05T04:09:53;8.90;;;6.75;;
8757;SDS011;4415;42.152;24.744;2022-08-05T04:12:19;8.77;;;6.05;;
8757;SDS011;4415;42.152;24.744;2022-08-05T04:14:44;7.20;;;6.50;;
8757;SDS011;4415;42.152;24.744;2022-08-05T04:17:11;11.55;;;7.15;;
8757;SDS011;4415;42.152;24.744;2022-08-05T04:19:40;6.57;;;5.93;;
8757;SDS011;4415;42.152;24.744;2022-08-05T04:22:07;7.72;;;5.68;;
8757;SDS011;4415;42.152;24.744;2022-08-05T04:24:32;11.65;;;6.43;;
8757;SDS011;4415;42.152;24.744;2022-08-05T04:26:58;21.88;;;8.02;;
8757;SDS011;4415;42.152;24.744;2022-08-05T04:29:23;13.20;;;7.45;;
8757;SDS011;4415;42.152;24.744;2022-08-05T04:31:48;10.70;;;6.88;;
8757;SDS011;4415;42.152;24.744;2022-08-05T04:34:14;15.40;;;6.85;;
8757;SDS011;4415;42.152;24.744;2022-08-05T04:36:39;6.28;;;5.65;;
8757;SDS011;4415;42.152;24.744;2022-08-05T04:39:04;7.53;;;6.47;;
8757;SDS011;4415;42.152;24.744;2022-08-05T04:41:30;6.88;;;5.55;;
8757;SDS011;4415;42.152;24.744;2022-08-05T04:43:56;5.32;;;4.93;;
8757;SDS011;4415;42.152;24.744;2022-08-05T04:46:21;9.63;;;5.43;;
8757;SDS011;4415;42.152;24.744;2022-08-05T04:48:47;8.65;;;5.50;;
8757;SDS011;4415;42.152;24.744;2022-08-05T04:51:12;7.18;;;5.45;;
8757;SDS011;4415;42.152;24.744;2022-08-05T04:53:37;8.10;;;5.90;;
8757;SDS011;4415;42.152;24.744;2022-08-05T04:56:04;21.63;;;7.35;;
8757;SDS011;4415;42.152;24.744;2022-08-05T04:58:31;17.83;;;7.00;;
8757;SDS011;4415;42.152;24.744;2022-08-05T05:00:56;14.25;;;7.47;;
8757;SDS011;4415;42.152;24.744;2022-08-05T05:03:21;14.70;;;6.82;;
8757;SDS011;4415;42.152;24.744;2022-08-05T05:05:47;14.18;;;6.68;;
8757;SDS011;4415;42.152;24.744;2022-08-05T05:08:12;9.77;;;5.63;;
8757;SDS011;4415;42.152;24.744;2022-08-05T05:10:42;10.65;;;5.63;;
8757;SDS011;4415;42.152;24.744;2022-08-05T05:13:13;5.43;;;4.97;;
8757;SDS011;4415;42.152;24.744;2022-08-05T05:15:40;9.73;;;5.53;;
8757;SDS011;4415;42.152;24.744;2022-08-05T05:18:06;6.13;;;5.63;;
8757;SDS011;4415;42.152;24.744;2022-08-05T05:20:33;6.30;;;5.50;;
8757;SDS011;4415;42.152;24.744;2022-08-05T05:22:59;4.72;;;4.32;;
8757;SDS011;4415;42.152;24.744;2022-08-05T05:25:28;7.03;;;5.00;;
8757;SDS011;4415;42.152;24.744;2022-08-05T05:27:54;8.50;;;5.45;;
8757;SDS011;4415;42.152;24.744;2022-08-05T05:30:20;6.75;;;4.97;;
8757;SDS011;4415;42.152;24.744;2022-08-05T05:32:46;4.88;;;4.47;;
8757;SDS011;4415;42.152;24.744;2022-08-05T05:35:12;5.22;;;4.78;;
8757;SDS011;4415;42.152;24.744;2022-08-05T05:40:13;5.68;;;4.90;;
8757;SDS011;4415;42.152;24.744;2022-08-05T05:42:40;5.20;;;4.70;;
8757;SDS011;4415;42.152;24.744;2022-08-05T05:45:05;5.38;;;4.80;;
8757;SDS011;4415;42.152;24.744;2022-08-05T05:47:31;5.35;;;4.90;;
8757;SDS011;4415;42.152;24.744;2022-08-05T05:49:56;4.57;;;4.22;;
8757;SDS011;4415;42.152;24.744;2022-08-05T05:52:22;4.72;;;4.22;;
8757;SDS011;4415;42.152;24.744;2022-08-05T05:54:48;8.02;;;5.18;;
8757;SDS011;4415;42.152;24.744;2022-08-05T05:57:14;4.68;;;4.30;;
8757;SDS011;4415;42.152;24.744;2022-08-05T05:59:39;4.63;;;4.38;;
8757;SDS011;4415;42.152;24.744;2022-08-05T06:02:04;4.65;;;4.25;;
8757;SDS011;4415;42.152;24.744;2022-08-05T06:04:30;4.00;;;3.67;;
8757;SDS011;4415;42.152;24.744;2022-08-05T06:06:56;4.82;;;4.13;;
8757;SDS011;4415;42.152;24.744;2022-08-05T06:09:21;4.70;;;4.30;;
8757;SDS011;4415;42.152;24.744;2022-08-05T06:11:46;4.90;;;4.40;;
8757;SDS011;4415;42.152;24.744;2022-08-05T06:14:12;7.70;;;4.40;;
8757;SDS011;4415;42.152;24.744;2022-08-05T06:16:37;6.03;;;4.28;;
8757;SDS011;4415;42.152;24.744;2022-08-05T06:19:04;10.02;;;5.10;;
8757;SDS011;4415;42.152;24.744;2022-08-05T06:21:29;7.03;;;4.30;;
8757;SDS011;4415;42.152;24.744;2022-08-05T06:23:58;4.95;;;4.68;;
8757;SDS011;4415;42.152;24.744;2022-08-05T06:26:23;5.00;;;4.30;;
8757;SDS011;4415;42.152;24.744;2022-08-05T06:28:49;10.40;;;4.38;;
8757;SDS011;4415;42.152;24.744;2022-08-05T06:31:14;7.10;;;4.63;;
8757;SDS011;4415;42.152;24.744;2022-08-05T06:33:40;5.68;;;5.15;;
8757;SDS011;4415;42.152;24.744;2022-08-05T06:36:05;4.78;;;4.38;;
8757;SDS011;4415;42.152;24.744;2022-08-05T06:38:31;4.85;;;4.45;;
8757;SDS011;4415;42.152;24.744;2022-08-05T06:40:56;6.32;;;4.68;;
8757;SDS011;4415;42.152;24.744;2022-08-05T06:43:22;4.80;;;4.40;;
8757;SDS011;4415;42.152;24.744;2022-08-05T06:45:47;5.32;;;4.90;;
8757;SDS011;4415;42.152;24.744;2022-08-05T06:48:13;9.48;;;5.32;;
8757;SDS011;4415;42.152;24.744;2022-08-05T06:50:38;5.75;;;5.15;;
8757;SDS011;4415;42.152;24.744;2022-08-05T06:53:04;5.45;;;5.05;;
8757;SDS011;4415;42.152;24.744;2022-08-05T06:55:29;5.93;;;5.40;;
8757;SDS011;4415;42.152;24.744;2022-08-05T06:57:54;5.20;;;4.90;;
8757;SDS011;4415;42.152;24.744;2022-08-05T07:00:20;5.70;;;5.20;;
8757;SDS011;4415;42.152;24.744;2022-08-05T07:02:46;6.28;;;5.68;;
8757;SDS011;4415;42.152;24.744;2022-08-05T07:05:11;5.53;;;5.00;;
8757;SDS011;4415;42.152;24.744;2022-08-05T07:07:38;5.25;;;4.82;;
8757;SDS011;4415;42.152;24.744;2022-08-05T07:10:04;5.53;;;5.10;;
8757;SDS011;4415;42.152;24.744;2022-08-05T07:12:33;5.45;;;4.75;;
8757;SDS011;4415;42.152;24.744;2022-08-05T07:15:25;15.88;;;6.72;;
8757;SDS011;4415;42.152;24.744;2022-08-05T07:18:10;6.35;;;5.53;;
8757;SDS011;4415;42.152;24.744;2022-08-05T07:20:35;6.30;;;5.43;;
8757;SDS011;4415;42.152;24.744;2022-08-05T07:23:01;5.20;;;4.80;;
8757;SDS011;4415;42.152;24.744;2022-08-05T07:25:26;5.68;;;5.10;;
8757;SDS011;4415;42.152;24.744;2022-08-05T07:27:53;5.65;;;5.32;;
8757;SDS011;4415;42.152;24.744;2022-08-05T07:30:19;5.75;;;5.25;;
8757;SDS011;4415;42.152;24.744;2022-08-05T07:32:45;6.03;;;5.60;;
8757;SDS011;4415;42.152;24.744;2022-08-05T07:35:10;6.22;;;5.35;;
8757;SDS011;4415;42.152;24.744;2022-08-05T07:37:37;5.10;;;4.68;;
8757;SDS011;4415;42.152;24.744;2022-08-05T07:40:04;6.20;;;5.63;;
8757;SDS011;4415;42.152;24.744;2022-08-05T07:42:30;6.93;;;5.47;;
8757;SDS011;4415;42.152;24.744;2022-08-05T07:44:55;6.78;;;5.60;;
8757;SDS011;4415;42.152;24.744;2022-08-05T07:47:21;5.68;;;5.32;;
8757;SDS011;4415;42.152;24.744;2022-08-05T07:49:46;5.55;;;5.03;;
8757;SDS011;4415;42.152;24.744;2022-08-05T07:52:12;5.25;;;4.95;;
8757;SDS011;4415;42.152;24.744;2022-08-05T07:54:38;5.05;;;4.68;;
8757;SDS011;4415;42.152;24.744;2022-08-05T07:57:03;5.65;;;5.18;;
8757;SDS011;4415;42.152;24.744;2022-08-05T07:59:29;6.00;;;5.40;;
8757;SDS011;4415;42.152;24.744;2022-08-05T08:01:55;6.00;;;5.50;;
8757;SDS011;4415;42.152;24.744;2022-08-05T08:04:20;5.22;;;4.97;;
8757;SDS011;4415;42.152;24.744;2022-08-05T08:06:45;5.90;;;5.47;;
8757;SDS011;4415;42.152;24.744;2022-08-05T08:09:11;7.00;;;6.45;;
8757;SDS011;4415;42.152;24.744;2022-08-05T08:11:36;15.10;;;6.28;;
8757;SDS011;4415;42.152;24.744;2022-08-05T08:14:02;6.93;;;6.32;;
8757;SDS011;4415;42.152;24.744;2022-08-05T08:16:27;9.77;;;6.78;;
8757;SDS011;4415;42.152;24.744;2022-08-05T08:18:53;6.60;;;6.05;;
8757;SDS011;4415;42.152;24.744;2022-08-05T08:21:19;7.72;;;6.00;;
8757;SDS011;4415;42.152;24.744;2022-08-05T08:23:44;5.18;;;4.68;;
8757;SDS011;4415;42.152;24.744;2022-08-05T08:26:10;7.88;;;7.03;;
8757;SDS011;4415;42.152;24.744;2022-08-05T08:28:35;8.65;;;7.03;;
8757;SDS011;4415;42.152;24.744;2022-08-05T08:31:01;5.60;;;5.18;;
8757;SDS011;4415;42.152;24.744;2022-08-05T08:33:26;9.07;;;5.68;;
8757;SDS011;4415;42.152;24.744;2022-08-05T08:35:51;7.40;;;6.70;;
8757;SDS011;4415;42.152;24.744;2022-08-05T08:38:17;7.38;;;6.75;;
8757;SDS011;4415;42.152;24.744;2022-08-05T08:40:42;6.57;;;6.03;;
8757;SDS011;4415;42.152;24.744;2022-08-05T08:43:10;12.82;;;7.57;;
8757;SDS011;4415;42.152;24.744;2022-08-05T08:45:37;5.75;;;5.45;;
8757;SDS011;4415;42.152;24.744;2022-08-05T08:48:03;6.65;;;6.20;;
8757;SDS011;4415;42.152;24.744;2022-08-05T08:50:31;12.63;;;6.15;;
8757;SDS011;4415;42.152;24.744;2022-08-05T08:53:00;11.80;;;5.80;;
8757;SDS011;4415;42.152;24.744;2022-08-05T08:55:30;5.65;;;5.13;;
